PUA984 SUMU-KMIA
Flight info
| Callsign | PUA984 |
|---|---|
| Flight time | N/A |
| Altitude | 38000 |
| Route | MONSA UP526 GEMSU UZ120 SIS UM784 LOKOX UL417 ISARA/N0486F400 UL417 LENAX UL795 ALTIB UM779 ZEUSS VIICE2 |
| Aircraft | B788/H-SDE1E2E3FGHIJ2J3J4J5M1RWXY/LB1D1 |
Departure
| Time | N/A |
|---|---|
| Airport | Carrasco General Cesáreo L. Berisso International Airport (SUMU) |
Arrival
| Time | 2026-05-04 13:43 |
|---|---|
| Airport | Miami International Airport (KMIA) |
| Time | Latitude | Longitude | Altitude | Speed | Heading |
|---|---|---|---|---|---|
| 2026-05-04 12:07 | 16.27895 | -76.07070 | 37981 ft | 459 kts | 340° |
| 2026-05-04 12:07 | 16.30945 | -76.08060 | 37981 ft | 459 kts | 340° |
| 2026-05-04 12:07 | 16.37045 | -76.10042 | 37984 ft | 460 kts | 340° |
| 2026-05-04 12:08 | 16.43168 | -76.12032 | 37989 ft | 461 kts | 340° |
| 2026-05-04 12:08 | 16.49303 | -76.14027 | 37994 ft | 462 kts | 340° |
| 2026-05-04 12:09 | 16.55445 | -76.16026 | 37994 ft | 463 kts | 339° |
| 2026-05-04 12:09 | 16.61589 | -76.18026 | 37990 ft | 462 kts | 339° |
| 2026-05-04 12:10 | 16.67664 | -76.20006 | 37986 ft | 459 kts | 339° |
| 2026-05-04 12:10 | 16.73760 | -76.21994 | 37985 ft | 459 kts | 339° |
| 2026-05-04 12:11 | 16.79861 | -76.23985 | 37984 ft | 460 kts | 339° |
| 2026-05-04 12:11 | 16.85978 | -76.25982 | 37985 ft | 461 kts | 339° |
| 2026-05-04 12:12 | 16.92101 | -76.27983 | 37991 ft | 462 kts | 339° |
| 2026-05-04 12:12 | 16.98294 | -76.30041 | 38017 ft | 473 kts | 339° |
| 2026-05-04 12:14 | 17.23476 | -76.38403 | 39756 ft | 473 kts | 339° |
| 2026-05-04 12:15 | 17.26617 | -76.39449 | 39991 ft | 473 kts | 339° |
| 2026-05-04 12:15 | 17.29767 | -76.40497 | 39980 ft | 476 kts | 338° |
| 2026-05-04 12:15 | 17.36067 | -76.42593 | 39966 ft | 472 kts | 338° |
| 2026-05-04 12:16 | 17.42323 | -76.44680 | 39976 ft | 470 kts | 338° |
| 2026-05-04 12:16 | 17.48560 | -76.46759 | 39977 ft | 470 kts | 338° |
| 2026-05-04 12:17 | 17.54763 | -76.48829 | 39980 ft | 471 kts | 338° |
| 2026-05-04 12:17 | 17.61017 | -76.50917 | 39982 ft | 472 kts | 338° |
| 2026-05-04 12:18 | 17.67279 | -76.53011 | 39975 ft | 473 kts | 338° |
| 2026-05-04 12:18 | 17.73549 | -76.55107 | 39997 ft | 473 kts | 338° |
| 2026-05-04 12:19 | 17.79815 | -76.57205 | 39987 ft | 472 kts | 338° |
| 2026-05-04 12:19 | 17.86077 | -76.59302 | 39993 ft | 472 kts | 338° |
| 2026-05-04 12:20 | 17.92336 | -76.61400 | 39996 ft | 472 kts | 338° |
| 2026-05-04 12:20 | 17.98592 | -76.63497 | 39994 ft | 472 kts | 338° |
| 2026-05-04 12:21 | 18.04848 | -76.65598 | 39992 ft | 472 kts | 338° |
| 2026-05-04 12:21 | 18.11059 | -76.67684 | 39993 ft | 471 kts | 338° |
| 2026-05-04 12:22 | 18.17299 | -76.69782 | 39994 ft | 471 kts | 338° |
| 2026-05-04 12:22 | 18.23543 | -76.71883 | 39992 ft | 471 kts | 338° |
| 2026-05-04 12:23 | 18.29786 | -76.73985 | 39989 ft | 471 kts | 338° |
| 2026-05-04 12:23 | 18.36024 | -76.76087 | 40001 ft | 470 kts | 337° |
| 2026-05-04 12:24 | 18.42261 | -76.78190 | 40003 ft | 470 kts | 337° |
| 2026-05-04 12:24 | 18.48486 | -76.80290 | 40002 ft | 469 kts | 337° |
| 2026-05-04 12:25 | 18.54707 | -76.82392 | 39999 ft | 470 kts | 337° |
| 2026-05-04 12:25 | 18.60919 | -76.84491 | 40001 ft | 471 kts | 337° |
| 2026-05-04 12:26 | 18.67174 | -76.86606 | 39998 ft | 473 kts | 337° |
| 2026-05-04 12:26 | 18.73439 | -76.88727 | 40003 ft | 472 kts | 337° |
| 2026-05-04 12:27 | 18.79694 | -76.90846 | 40008 ft | 472 kts | 337° |
| 2026-05-04 12:27 | 18.85949 | -76.92967 | 40007 ft | 471 kts | 337° |
| 2026-05-04 12:28 | 18.92196 | -76.95086 | 40009 ft | 471 kts | 337° |
| 2026-05-04 12:28 | 18.98436 | -76.97205 | 40011 ft | 471 kts | 337° |
| 2026-05-04 12:29 | 19.04659 | -76.99319 | 40012 ft | 468 kts | 336° |
| 2026-05-04 12:29 | 19.09806 | -77.01071 | 40014 ft | 468 kts | 336° |
| 2026-05-04 12:30 | 19.16012 | -77.03182 | 40015 ft | 468 kts | 336° |
| 2026-05-04 12:30 | 19.22211 | -77.05293 | 40015 ft | 468 kts | 336° |
| 2026-05-04 12:31 | 19.28408 | -77.07406 | 40019 ft | 468 kts | 336° |
| 2026-05-04 12:31 | 19.34578 | -77.09487 | 40027 ft | 469 kts | 339° |
| 2026-05-04 12:32 | 19.44006 | -77.12227 | 40020 ft | 466 kts | 339° |
| 2026-05-04 12:33 | 19.50278 | -77.14041 | 40017 ft | 468 kts | 339° |
| 2026-05-04 12:33 | 19.56566 | -77.15873 | 40019 ft | 469 kts | 339° |
| 2026-05-04 12:34 | 19.62866 | -77.17705 | 40024 ft | 470 kts | 339° |
| 2026-05-04 12:34 | 19.69184 | -77.19545 | 40015 ft | 471 kts | 338° |
| 2026-05-04 12:35 | 19.75439 | -77.21368 | 40024 ft | 468 kts | 338° |
| 2026-05-04 12:35 | 19.81713 | -77.23199 | 40023 ft | 467 kts | 338° |
| 2026-05-04 12:36 | 19.87997 | -77.25035 | 40023 ft | 470 kts | 338° |
| 2026-05-04 12:36 | 19.94321 | -77.26883 | 40027 ft | 471 kts | 338° |
| 2026-05-04 12:37 | 20.00635 | -77.28728 | 40027 ft | 470 kts | 338° |
| 2026-05-04 12:37 | 20.06931 | -77.30572 | 40024 ft | 468 kts | 338° |
| 2026-05-04 12:38 | 20.13163 | -77.32397 | 40019 ft | 466 kts | 338° |
| 2026-05-04 12:38 | 20.19427 | -77.34235 | 40018 ft | 468 kts | 338° |
| 2026-05-04 12:39 | 20.25717 | -77.36080 | 40023 ft | 469 kts | 338° |
| 2026-05-04 12:39 | 20.32020 | -77.37932 | 40023 ft | 470 kts | 338° |
| 2026-05-04 12:40 | 20.38330 | -77.39785 | 40021 ft | 469 kts | 338° |
| 2026-05-04 12:40 | 20.44599 | -77.41630 | 40021 ft | 466 kts | 338° |
| 2026-05-04 12:41 | 20.50847 | -77.43470 | 40019 ft | 466 kts | 338° |
| 2026-05-04 12:41 | 20.57100 | -77.45308 | 40024 ft | 466 kts | 338° |
| 2026-05-04 12:42 | 20.63381 | -77.47086 | 40023 ft | 467 kts | 338° |
| 2026-05-04 12:42 | 20.69607 | -77.48878 | 40028 ft | 466 kts | 338° |
| 2026-05-04 12:43 | 20.75872 | -77.50670 | 40028 ft | 464 kts | 338° |
| 2026-05-04 12:43 | 20.82112 | -77.52462 | 40030 ft | 464 kts | 338° |
| 2026-05-04 12:44 | 20.88354 | -77.54254 | 40027 ft | 464 kts | 338° |
| 2026-05-04 12:44 | 20.94592 | -77.56047 | 40027 ft | 464 kts | 338° |
| 2026-05-04 12:45 | 21.00836 | -77.57844 | 40024 ft | 465 kts | 338° |
| 2026-05-04 12:45 | 21.07082 | -77.59640 | 40026 ft | 465 kts | 338° |
| 2026-05-04 12:46 | 21.13323 | -77.61438 | 40034 ft | 465 kts | 338° |
| 2026-05-04 12:46 | 21.19531 | -77.63228 | 40031 ft | 464 kts | 338° |
| 2026-05-04 12:47 | 21.25770 | -77.65028 | 40031 ft | 464 kts | 338° |
| 2026-05-04 12:47 | 21.31999 | -77.66827 | 40028 ft | 464 kts | 338° |
| 2026-05-04 12:48 | 21.38225 | -77.68625 | 40039 ft | 462 kts | 337° |
| 2026-05-04 12:48 | 21.44419 | -77.70419 | 40040 ft | 461 kts | 337° |
| 2026-05-04 12:49 | 21.50624 | -77.72215 | 40041 ft | 461 kts | 337° |
| 2026-05-04 12:49 | 21.56819 | -77.74011 | 40039 ft | 462 kts | 337° |
| 2026-05-04 12:50 | 21.63035 | -77.75814 | 40043 ft | 462 kts | 337° |
| 2026-05-04 12:50 | 21.69244 | -77.77616 | 40040 ft | 462 kts | 336° |
| 2026-05-04 12:51 | 21.75441 | -77.79417 | 40039 ft | 460 kts | 336° |
| 2026-05-04 12:51 | 21.81580 | -77.81203 | 40041 ft | 460 kts | 336° |
| 2026-05-04 12:52 | 21.87719 | -77.83080 | 40049 ft | 453 kts | 330° |
| 2026-05-04 12:52 | 21.93138 | -77.86286 | 40049 ft | 439 kts | 315° |
| 2026-05-04 12:53 | 21.97997 | -77.90281 | 40045 ft | 440 kts | 315° |
| 2026-05-04 12:53 | 22.02859 | -77.94308 | 40034 ft | 440 kts | 315° |
| 2026-05-04 12:54 | 22.07715 | -77.98324 | 40048 ft | 440 kts | 315° |
| 2026-05-04 12:54 | 22.12576 | -78.02352 | 40045 ft | 441 kts | 315° |
| 2026-05-04 12:55 | 22.17423 | -78.06369 | 40041 ft | 442 kts | 315° |
| 2026-05-04 12:55 | 22.22303 | -78.10418 | 40042 ft | 441 kts | 315° |
| 2026-05-04 12:56 | 22.27153 | -78.14446 | 40039 ft | 439 kts | 315° |
| 2026-05-04 12:56 | 22.31995 | -78.18471 | 40039 ft | 439 kts | 315° |
| 2026-05-04 12:57 | 22.36838 | -78.22500 | 40038 ft | 440 kts | 315° |
| 2026-05-04 12:57 | 22.41665 | -78.26518 | 40039 ft | 437 kts | 315° |
| 2026-05-04 12:58 | 22.46486 | -78.30538 | 40036 ft | 437 kts | 315° |
| 2026-05-04 12:58 | 22.51306 | -78.34558 | 40036 ft | 437 kts | 315° |
| 2026-05-04 12:59 | 22.56135 | -78.38570 | 40036 ft | 438 kts | 315° |
| 2026-05-04 12:59 | 22.60945 | -78.42561 | 40038 ft | 438 kts | 315° |
| 2026-05-04 13:00 | 22.65782 | -78.46585 | 40039 ft | 439 kts | 315° |
| 2026-05-04 13:00 | 22.70628 | -78.50615 | 40043 ft | 438 kts | 314° |
| 2026-05-04 13:01 | 22.75556 | -78.54482 | 40045 ft | 442 kts | 322° |
| 2026-05-04 13:01 | 22.81354 | -78.57032 | 40046 ft | 460 kts | 338° |
| 2026-05-04 13:02 | 22.87697 | -78.58295 | 40038 ft | 463 kts | 341° |
| 2026-05-04 13:02 | 22.94018 | -78.59482 | 40038 ft | 465 kts | 341° |
| 2026-05-04 13:03 | 23.00393 | -78.60682 | 40040 ft | 465 kts | 341° |
| 2026-05-04 13:03 | 23.06786 | -78.61887 | 40027 ft | 467 kts | 341° |
| 2026-05-04 13:04 | 23.13188 | -78.63093 | 40036 ft | 466 kts | 340° |
| 2026-05-04 13:04 | 23.19569 | -78.64298 | 40021 ft | 464 kts | 340° |
| 2026-05-04 13:05 | 23.25939 | -78.65502 | 40020 ft | 465 kts | 340° |
| 2026-05-04 13:05 | 23.32319 | -78.66709 | 40022 ft | 466 kts | 340° |
| 2026-05-04 13:06 | 23.38721 | -78.67920 | 40028 ft | 467 kts | 340° |
| 2026-05-04 13:06 | 23.45121 | -78.69132 | 40033 ft | 466 kts | 340° |
| 2026-05-04 13:07 | 23.51498 | -78.70343 | 40031 ft | 465 kts | 340° |
| 2026-05-04 13:07 | 23.57863 | -78.71551 | 40029 ft | 464 kts | 340° |
| 2026-05-04 13:08 | 23.64224 | -78.72760 | 40029 ft | 464 kts | 340° |
| 2026-05-04 13:08 | 23.70582 | -78.73970 | 40027 ft | 463 kts | 340° |
| 2026-05-04 13:09 | 23.76925 | -78.75177 | 40025 ft | 462 kts | 340° |
| 2026-05-04 13:09 | 23.83274 | -78.76389 | 40026 ft | 463 kts | 340° |
| 2026-05-04 13:10 | 23.89591 | -78.77594 | 40027 ft | 464 kts | 340° |
| 2026-05-04 13:10 | 23.95968 | -78.78813 | 40029 ft | 465 kts | 339° |
| 2026-05-04 13:10 | 23.99060 | -78.79669 | 40036 ft | 453 kts | 330° |
| 2026-05-04 13:11 | 24.01940 | -78.80969 | 40036 ft | 442 kts | 323° |
| 2026-05-04 13:11 | 24.07184 | -78.84329 | 40033 ft | 437 kts | 320° |
| 2026-05-04 13:12 | 24.12379 | -78.87753 | 39842 ft | 429 kts | 319° |
| 2026-05-04 13:12 | 24.14926 | -78.89440 | 39299 ft | 427 kts | 319° |
| 2026-05-04 13:12 | 24.17457 | -78.91121 | 38754 ft | 426 kts | 319° |
| 2026-05-04 13:12 | 24.19992 | -78.92801 | 38110 ft | 425 kts | 319° |
| 2026-05-04 13:13 | 24.22526 | -78.94478 | 37498 ft | 427 kts | 319° |
| 2026-05-04 13:13 | 24.25089 | -78.96181 | 36893 ft | 434 kts | 320° |
| 2026-05-04 13:13 | 24.27681 | -78.97900 | 36274 ft | 436 kts | 320° |
| 2026-05-04 13:13 | 24.30266 | -78.99607 | 35923 ft | 427 kts | 320° |
| 2026-05-04 13:14 | 24.32768 | -79.01256 | 35841 ft | 416 kts | 320° |
| 2026-05-04 13:14 | 24.35271 | -79.02935 | 35268 ft | 429 kts | 320° |
| 2026-05-04 13:14 | 24.37826 | -79.04645 | 34669 ft | 430 kts | 321° |
| 2026-05-04 13:14 | 24.40388 | -79.06334 | 34073 ft | 428 kts | 321° |
| 2026-05-04 13:15 | 24.42940 | -79.08023 | 33454 ft | 425 kts | 321° |
| 2026-05-04 13:15 | 24.45453 | -79.09699 | 32874 ft | 421 kts | 321° |
| 2026-05-04 13:15 | 24.47103 | -79.10800 | 32499 ft | 418 kts | 322° |
| 2026-05-04 13:15 | 24.49577 | -79.12449 | 31919 ft | 414 kts | 322° |
| 2026-05-04 13:16 | 24.52797 | -79.14589 | 31364 ft | 404 kts | 322° |
| 2026-05-04 13:16 | 24.55179 | -79.16177 | 30931 ft | 397 kts | 322° |
| 2026-05-04 13:16 | 24.57520 | -79.17740 | 30524 ft | 391 kts | 322° |
| 2026-05-04 13:16 | 24.59087 | -79.18787 | 30249 ft | 388 kts | 322° |
| 2026-05-04 13:17 | 24.61387 | -79.20321 | 29810 ft | 384 kts | 323° |
| 2026-05-04 13:17 | 24.63669 | -79.21843 | 29361 ft | 382 kts | 322° |
| 2026-05-04 13:17 | 24.65896 | -79.23332 | 28960 ft | 379 kts | 322° |
| 2026-05-04 13:17 | 24.68142 | -79.24834 | 28557 ft | 378 kts | 322° |
| 2026-05-04 13:18 | 24.70390 | -79.26337 | 28162 ft | 377 kts | 322° |
| 2026-05-04 13:18 | 24.72631 | -79.27835 | 27763 ft | 376 kts | 323° |
| 2026-05-04 13:18 | 24.74866 | -79.29330 | 27376 ft | 375 kts | 323° |
| 2026-05-04 13:18 | 24.77089 | -79.30818 | 26974 ft | 373 kts | 323° |
| 2026-05-04 13:19 | 24.79300 | -79.32299 | 26584 ft | 371 kts | 323° |
| 2026-05-04 13:19 | 24.81496 | -79.33770 | 26195 ft | 369 kts | 323° |
| 2026-05-04 13:19 | 24.83680 | -79.35234 | 25809 ft | 367 kts | 323° |
| 2026-05-04 13:19 | 24.85857 | -79.36694 | 25424 ft | 365 kts | 323° |
| 2026-05-04 13:20 | 24.88020 | -79.38145 | 25041 ft | 363 kts | 323° |
| 2026-05-04 13:20 | 24.90171 | -79.39588 | 24663 ft | 361 kts | 323° |
| 2026-05-04 13:20 | 24.92313 | -79.41026 | 24283 ft | 360 kts | 323° |
| 2026-05-04 13:20 | 24.94445 | -79.42458 | 23907 ft | 358 kts | 323° |
| 2026-05-04 13:21 | 24.96575 | -79.43888 | 23521 ft | 356 kts | 323° |
| 2026-05-04 13:21 | 24.98682 | -79.45303 | 23117 ft | 352 kts | 323° |
| 2026-05-04 13:21 | 25.00765 | -79.46704 | 22743 ft | 350 kts | 323° |
| 2026-05-04 13:21 | 25.02835 | -79.48098 | 22376 ft | 348 kts | 322° |
| 2026-05-04 13:22 | 25.04904 | -79.49491 | 22006 ft | 348 kts | 322° |
| 2026-05-04 13:22 | 25.06966 | -79.50879 | 21644 ft | 347 kts | 322° |
| 2026-05-04 13:22 | 25.09026 | -79.52266 | 21283 ft | 347 kts | 322° |
| 2026-05-04 13:22 | 25.11079 | -79.53649 | 20919 ft | 345 kts | 322° |
| 2026-05-04 13:23 | 25.13122 | -79.55026 | 20555 ft | 344 kts | 322° |
| 2026-05-04 13:23 | 25.15135 | -79.56384 | 20200 ft | 343 kts | 322° |
| 2026-05-04 13:23 | 25.17164 | -79.57752 | 19841 ft | 341 kts | 322° |
| 2026-05-04 13:23 | 25.19186 | -79.59117 | 19477 ft | 340 kts | 322° |
| 2026-05-04 13:24 | 25.21202 | -79.60478 | 19125 ft | 339 kts | 322° |
| 2026-05-04 13:24 | 25.23209 | -79.61833 | 18760 ft | 337 kts | 322° |
| 2026-05-04 13:24 | 25.25208 | -79.63184 | 18416 ft | 336 kts | 322° |
| 2026-05-04 13:25 | 25.29176 | -79.65865 | 17676 ft | 332 kts | 321° |
| 2026-05-04 13:25 | 25.31142 | -79.67196 | 17322 ft | 330 kts | 321° |
| 2026-05-04 13:25 | 25.33094 | -79.68518 | 16974 ft | 328 kts | 322° |
| 2026-05-04 13:25 | 25.35033 | -79.69830 | 16631 ft | 326 kts | 322° |
| 2026-05-04 13:26 | 25.36962 | -79.71136 | 16292 ft | 324 kts | 322° |
| 2026-05-04 13:26 | 25.38765 | -79.72575 | 15956 ft | 314 kts | 310° |
| 2026-05-04 13:26 | 25.40117 | -79.74380 | 15646 ft | 305 kts | 300° |
| 2026-05-04 13:26 | 25.41350 | -79.76291 | 15317 ft | 304 kts | 300° |
| 2026-05-04 13:27 | 25.42572 | -79.78197 | 14996 ft | 303 kts | 300° |
| 2026-05-04 13:27 | 25.43790 | -79.80095 | 14674 ft | 301 kts | 300° |
| 2026-05-04 13:27 | 25.45001 | -79.81983 | 14356 ft | 299 kts | 300° |
| 2026-05-04 13:27 | 25.46202 | -79.83855 | 14039 ft | 298 kts | 300° |
| 2026-05-04 13:28 | 25.47396 | -79.85718 | 13712 ft | 296 kts | 300° |
| 2026-05-04 13:28 | 25.48582 | -79.87568 | 13393 ft | 294 kts | 301° |
| 2026-05-04 13:28 | 25.49763 | -79.89413 | 13074 ft | 294 kts | 301° |
| 2026-05-04 13:28 | 25.50943 | -79.91255 | 12766 ft | 294 kts | 301° |
| 2026-05-04 13:29 | 25.52125 | -79.93102 | 12461 ft | 294 kts | 301° |
| 2026-05-04 13:29 | 25.53307 | -79.94949 | 12152 ft | 294 kts | 302° |
| 2026-05-04 13:29 | 25.54488 | -79.96794 | 11858 ft | 293 kts | 302° |
| 2026-05-04 13:29 | 25.55665 | -79.98637 | 11537 ft | 292 kts | 302° |
| 2026-05-04 13:30 | 25.56836 | -80.00467 | 11231 ft | 288 kts | 302° |
| 2026-05-04 13:30 | 25.57968 | -80.02236 | 10934 ft | 277 kts | 302° |
| 2026-05-04 13:30 | 25.59072 | -80.03966 | 10632 ft | 274 kts | 302° |
| 2026-05-04 13:30 | 25.60153 | -80.05661 | 10357 ft | 272 kts | 303° |
| 2026-05-04 13:31 | 25.61232 | -80.07351 | 10084 ft | 265 kts | 303° |
| 2026-05-04 13:31 | 25.62284 | -80.08998 | 9802 ft | 260 kts | 303° |
| 2026-05-04 13:31 | 25.63324 | -80.10629 | 9507 ft | 258 kts | 303° |
| 2026-05-04 13:31 | 25.64357 | -80.12250 | 9239 ft | 258 kts | 303° |
| 2026-05-04 13:32 | 25.65385 | -80.13887 | 8914 ft | 257 kts | 300° |
| 2026-05-04 13:32 | 25.66159 | -80.15663 | 8583 ft | 257 kts | 294° |
| 2026-05-04 13:32 | 25.66921 | -80.17456 | 8273 ft | 257 kts | 294° |
| 2026-05-04 13:32 | 25.67687 | -80.19247 | 7953 ft | 257 kts | 294° |
| 2026-05-04 13:33 | 25.68449 | -80.21038 | 7629 ft | 257 kts | 294° |
| 2026-05-04 13:33 | 25.69212 | -80.22831 | 7349 ft | 257 kts | 294° |
| 2026-05-04 13:33 | 25.69989 | -80.24618 | 7038 ft | 259 kts | 297° |
| 2026-05-04 13:33 | 25.70760 | -80.26418 | 6729 ft | 256 kts | 294° |
| 2026-05-04 13:34 | 25.71215 | -80.28309 | 6394 ft | 254 kts | 273° |
| 2026-05-04 13:34 | 25.71163 | -80.30228 | 6059 ft | 245 kts | 267° |
| 2026-05-04 13:34 | 25.71055 | -80.32089 | 5733 ft | 238 kts | 267° |
| 2026-05-04 13:34 | 25.70959 | -80.33854 | 5391 ft | 221 kts | 267° |
| 2026-05-04 13:35 | 25.70881 | -80.35522 | 5110 ft | 216 kts | 268° |
| 2026-05-04 13:35 | 25.70725 | -80.38869 | 4493 ft | 215 kts | 268° |
| 2026-05-04 13:35 | 25.70646 | -80.40466 | 4164 ft | 202 kts | 268° |
| 2026-05-04 13:36 | 25.70570 | -80.42003 | 3843 ft | 201 kts | 268° |
| 2026-05-04 13:36 | 25.70454 | -80.43545 | 3522 ft | 202 kts | 267° |
| 2026-05-04 13:36 | 25.70325 | -80.45095 | 3298 ft | 198 kts | 266° |
| 2026-05-04 13:36 | 25.70200 | -80.46650 | 3344 ft | 213 kts | 267° |
| 2026-05-04 13:37 | 25.70088 | -80.48210 | 3307 ft | 194 kts | 271° |
| 2026-05-04 13:37 | 25.70435 | -80.49646 | 3299 ft | 198 kts | 300° |
| 2026-05-04 13:37 | 25.71408 | -80.50638 | 3295 ft | 192 kts | 331° |
| 2026-05-04 13:37 | 25.72276 | -80.50918 | 3298 ft | 197 kts | 351° |
| 2026-05-04 13:38 | 25.74010 | -80.50438 | 3322 ft | 199 kts | 21° |
| 2026-05-04 13:38 | 25.75250 | -80.49796 | 3248 ft | 197 kts | 22° |
| 2026-05-04 13:38 | 25.76480 | -80.49146 | 3072 ft | 196 kts | 22° |
| 2026-05-04 13:38 | 25.77702 | -80.48520 | 2870 ft | 190 kts | 21° |
| 2026-05-04 13:39 | 25.78813 | -80.47863 | 2860 ft | 173 kts | 33° |
| 2026-05-04 13:39 | 25.79479 | -80.46826 | 2985 ft | 159 kts | 61° |
| 2026-05-04 13:39 | 25.79674 | -80.45621 | 2833 ft | 160 kts | 85° |
| 2026-05-04 13:39 | 25.79693 | -80.44409 | 2444 ft | 156 kts | 84° |
| 2026-05-04 13:40 | 25.79744 | -80.43209 | 2096 ft | 154 kts | 83° |
| 2026-05-04 13:40 | 25.79791 | -80.42027 | 1696 ft | 152 kts | 83° |
| 2026-05-04 13:40 | 25.79837 | -80.40877 | 1498 ft | 143 kts | 82° |
| 2026-05-04 13:40 | 25.79894 | -80.39759 | 1506 ft | 149 kts | 82° |
| 2026-05-04 13:41 | 25.79944 | -80.38603 | 1497 ft | 150 kts | 83° |
| 2026-05-04 13:41 | 25.79993 | -80.37421 | 1335 ft | 155 kts | 83° |
| 2026-05-04 13:41 | 25.80040 | -80.36254 | 1126 ft | 149 kts | 82° |
| 2026-05-04 13:42 | 25.80164 | -80.34006 | 678 ft | 145 kts | 85° |
| 2026-05-04 13:42 | 25.80217 | -80.32893 | 488 ft | 143 kts | 86° |
| 2026-05-04 13:42 | 25.80236 | -80.31802 | 326 ft | 140 kts | 85° |
| 2026-05-04 13:42 | 25.80270 | -80.30719 | 196 ft | 142 kts | 84° |
| 2026-05-04 13:43 | 25.80315 | -80.29618 | 23 ft | 136 kts | 84° |
| 2026-05-04 13:43 | 25.80347 | -80.28812 | 21 ft | 70 kts | 87° |
| 2026-05-04 13:43 | 25.80361 | -80.28489 | 21 ft | 29 kts | 87° |
| 2026-05-04 13:43 | 25.80370 | -80.28266 | 23 ft | 29 kts | 88° |
| 2026-05-04 13:44 | 25.80358 | -80.28059 | 24 ft | 19 kts | 109° |
| 2026-05-04 13:44 | 25.80294 | -80.27983 | 21 ft | 8 kts | 155° |
| 2026-05-04 13:44 | 25.80278 | -80.27977 | 26 ft | 0 kts | 162° |
| 2026-05-04 13:44 | 25.80276 | -80.27976 | 26 ft | 1 kts | 162° |
| 2026-05-04 13:45 | 25.80273 | -80.27975 | 25 ft | 0 kts | 162° |
| 2026-05-04 13:45 | 25.80272 | -80.27975 | 25 ft | 1 kts | 162° |
| 2026-05-04 13:45 | 25.80253 | -80.27971 | 21 ft | 4 kts | 169° |
| 2026-05-04 13:46 | 25.80188 | -80.27962 | 20 ft | 13 kts | 174° |
| 2026-05-04 13:46 | 25.80088 | -80.27941 | 19 ft | 16 kts | 157° |
| 2026-05-04 13:46 | 25.79999 | -80.27910 | 23 ft | 10 kts | 196° |
| 2026-05-04 13:46 | 25.79967 | -80.27967 | 20 ft | 9 kts | 255° |
| 2026-05-04 13:47 | 25.79957 | -80.28044 | 20 ft | 11 kts | 268° |
| 2026-05-04 13:47 | 25.79958 | -80.28132 | 21 ft | 11 kts | 269° |
| 2026-05-04 13:47 | 25.79956 | -80.28225 | 21 ft | 13 kts | 268° |
| 2026-05-04 13:47 | 25.79952 | -80.28334 | 21 ft | 15 kts | 267° |
| 2026-05-04 13:48 | 25.79947 | -80.28459 | 21 ft | 17 kts | 267° |
| 2026-05-04 13:48 | 25.79942 | -80.28591 | 21 ft | 15 kts | 267° |
| 2026-05-04 13:48 | 25.79938 | -80.28675 | 21 ft | 11 kts | 267° |
| 2026-05-04 13:48 | 25.79934 | -80.28761 | 23 ft | 10 kts | 267° |
| 2026-05-04 13:49 | 25.79931 | -80.28849 | 21 ft | 12 kts | 267° |
| 2026-05-04 13:49 | 25.79885 | -80.28908 | 22 ft | 11 kts | 195° |
| 2026-05-04 13:49 | 25.79801 | -80.28911 | 22 ft | 13 kts | 178° |
| 2026-05-04 13:49 | 25.79700 | -80.28905 | 24 ft | 15 kts | 172° |
| 2026-05-04 13:50 | 25.79648 | -80.28821 | 21 ft | 14 kts | 99° |
| 2026-05-04 13:50 | 25.79646 | -80.28705 | 21 ft | 16 kts | 87° |
| 2026-05-04 13:50 | 25.79654 | -80.28584 | 21 ft | 16 kts | 81° |
| 2026-05-04 13:50 | 25.79671 | -80.28479 | 21 ft | 12 kts | 82° |
| 2026-05-04 13:51 | 25.79676 | -80.28394 | 21 ft | 11 kts | 89° |
| 2026-05-04 13:51 | 25.79677 | -80.28319 | 21 ft | 6 kts | 88° |
| 2026-05-04 13:51 | 25.79677 | -80.28312 | 21 ft | 2 kts | 91° |
| 2026-05-04 13:51 | 25.79673 | -80.28288 | 23 ft | 4 kts | 102° |
| 2026-05-04 13:52 | 25.79648 | -80.28193 | 21 ft | 1 kts | 107° |
| 2026-05-04 13:52 | 25.79649 | -80.28198 | 21 ft | 2 kts | 107° |
| 2026-05-04 13:53 | 25.79659 | -80.28235 | 23 ft | 0 kts | 107° |
| 2026-05-04 13:53 | 25.79667 | -80.28263 | 21 ft | 0 kts | 107° |
| 2026-05-04 13:54 | 25.79606 | -80.28237 | 21 ft | 3 kts | 150° |
| 2026-05-04 13:54 | 25.79585 | -80.28223 | 21 ft | 3 kts | 149° |
| 2026-05-04 13:54 | 25.79556 | -80.28203 | 21 ft | 1 kts | 147° |
| 2026-05-04 13:55 | 25.79554 | -80.28201 | 21 ft | 0 kts | 147° |